sensor_id;sensor_type;location;lat;lon;timestamp;pressure;altitude;pressure_sealevel;temperature;humidity
5609;BME280;2826;51.354;9.588;2023-04-25T00:01:05;97363.25;;;8.03;67.48
5609;BME280;2826;51.354;9.588;2023-04-25T00:03:32;97356.59;;;7.97;68.13
5609;BME280;2826;51.354;9.588;2023-04-25T00:05:58;97361.88;;;7.94;68.10
5609;BME280;2826;51.354;9.588;2023-04-25T00:08:28;97361.03;;;7.94;68.20
5609;BME280;2826;51.354;9.588;2023-04-25T00:10:56;97312.44;;;7.62;67.96
5609;BME280;2826;51.354;9.588;2023-04-25T00:13:23;97293.22;;;7.49;68.10
5609;BME280;2826;51.354;9.588;2023-04-25T00:15:51;97367.38;;;7.87;68.18
5609;BME280;2826;51.354;9.588;2023-04-25T00:18:18;97333.91;;;7.63;68.45
5609;BME280;2826;51.354;9.588;2023-04-25T00:20:45;97368.38;;;7.82;68.49
5609;BME280;2826;51.354;9.588;2023-04-25T00:23:12;97366.78;;;7.80;68.58
5609;BME280;2826;51.354;9.588;2023-04-25T00:25:43;97364.19;;;7.80;68.51
5609;BME280;2826;51.354;9.588;2023-04-25T00:28:10;97365.16;;;7.77;68.71
5609;BME280;2826;51.354;9.588;2023-04-25T00:30:37;97357.00;;;7.66;69.04
5609;BME280;2826;51.354;9.588;2023-04-25T00:33:04;97367.28;;;7.67;69.08
5609;BME280;2826;51.354;9.588;2023-04-25T00:35:31;97368.19;;;7.66;68.86
5609;BME280;2826;51.354;9.588;2023-04-25T00:37:58;97359.84;;;7.60;68.89
5609;BME280;2826;51.354;9.588;2023-04-25T00:40:25;97365.25;;;7.53;69.08
5609;BME280;2826;51.354;9.588;2023-04-25T00:42:52;97370.50;;;7.52;69.37
5609;BME280;2826;51.354;9.588;2023-04-25T00:45:20;97357.00;;;7.45;69.50
5609;BME280;2826;51.354;9.588;2023-04-25T00:47:47;97357.50;;;7.53;69.13
5609;BME280;2826;51.354;9.588;2023-04-25T00:50:14;97354.03;;;7.54;68.79
5609;BME280;2826;51.354;9.588;2023-04-25T00:52:43;97359.13;;;7.56;68.97
5609;BME280;2826;51.354;9.588;2023-04-25T00:55:11;97359.06;;;7.57;68.86
5609;BME280;2826;51.354;9.588;2023-04-25T00:57:38;97357.38;;;7.56;68.65
5609;BME280;2826;51.354;9.588;2023-04-25T01:00:06;97347.28;;;7.52;68.70
5609;BME280;2826;51.354;9.588;2023-04-25T01:02:36;97345.13;;;7.41;69.33
5609;BME280;2826;51.354;9.588;2023-04-25T01:05:03;97353.22;;;7.31;69.76
5609;BME280;2826;51.354;9.588;2023-04-25T01:07:29;97356.28;;;7.19;70.48
5609;BME280;2826;51.354;9.588;2023-04-25T01:09:56;97355.31;;;7.22;70.17
5609;BME280;2826;51.354;9.588;2023-04-25T01:12:23;97350.38;;;7.15;70.71
5609;BME280;2826;51.354;9.588;2023-04-25T01:14:50;97348.56;;;7.19;70.43
5609;BME280;2826;51.354;9.588;2023-04-25T01:17:18;97349.22;;;7.24;70.17
5609;BME280;2826;51.354;9.588;2023-04-25T01:19:46;97351.94;;;7.19;70.39
5609;BME280;2826;51.354;9.588;2023-04-25T01:22:15;97348.66;;;7.16;70.66
5609;BME280;2826;51.354;9.588;2023-04-25T01:24:42;97358.13;;;7.15;70.82
5609;BME280;2826;51.354;9.588;2023-04-25T01:27:10;97351.84;;;7.00;71.51
5609;BME280;2826;51.354;9.588;2023-04-25T01:29:37;97357.94;;;6.98;71.73
5609;BME280;2826;51.354;9.588;2023-04-25T01:32:05;97353.81;;;6.93;71.52
5609;BME280;2826;51.354;9.588;2023-04-25T01:34:32;97350.03;;;6.80;72.04
5609;BME280;2826;51.354;9.588;2023-04-25T01:36:59;97345.19;;;6.71;72.23
5609;BME280;2826;51.354;9.588;2023-04-25T01:39:29;97349.53;;;6.70;72.80
5609;BME280;2826;51.354;9.588;2023-04-25T01:41:55;97352.09;;;6.70;72.65
5609;BME280;2826;51.354;9.588;2023-04-25T01:44:23;97350.47;;;6.68;72.86
5609;BME280;2826;51.354;9.588;2023-04-25T01:46:50;97345.44;;;6.64;72.66
5609;BME280;2826;51.354;9.588;2023-04-25T01:49:16;97350.06;;;6.54;73.16
5609;BME280;2826;51.354;9.588;2023-04-25T01:51:44;97354.47;;;6.52;73.16
5609;BME280;2826;51.354;9.588;2023-04-25T01:54:10;97349.34;;;6.51;73.37
5609;BME280;2826;51.354;9.588;2023-04-25T01:56:39;97361.47;;;6.49;73.53
5609;BME280;2826;51.354;9.588;2023-04-25T01:59:09;97356.41;;;6.46;73.58
5609;BME280;2826;51.354;9.588;2023-04-25T02:01:48;97364.13;;;6.46;73.69
5609;BME280;2826;51.354;9.588;2023-04-25T02:04:22;97361.19;;;6.57;73.39
5609;BME280;2826;51.354;9.588;2023-04-25T02:06:49;97366.19;;;6.60;73.13
5609;BME280;2826;51.354;9.588;2023-04-25T02:09:15;97358.63;;;6.79;72.62
5609;BME280;2826;51.354;9.588;2023-04-25T02:11:51;97358.69;;;6.77;72.08
5609;BME280;2826;51.354;9.588;2023-04-25T02:14:26;97358.03;;;6.72;72.39
5609;BME280;2826;51.354;9.588;2023-04-25T02:17:04;97358.25;;;6.66;72.61
5609;BME280;2826;51.354;9.588;2023-04-25T02:19:31;97350.63;;;6.63;73.00
5609;BME280;2826;51.354;9.588;2023-04-25T02:21:58;97356.41;;;6.70;72.80
5609;BME280;2826;51.354;9.588;2023-04-25T02:24:24;97343.72;;;6.65;72.70
5609;BME280;2826;51.354;9.588;2023-04-25T02:26:56;97345.44;;;6.64;72.77
5609;BME280;2826;51.354;9.588;2023-04-25T02:29:22;97351.66;;;6.59;73.27
5609;BME280;2826;51.354;9.588;2023-04-25T02:31:49;97343.09;;;6.58;73.13
5609;BME280;2826;51.354;9.588;2023-04-25T02:34:16;97344.66;;;6.62;72.78
5609;BME280;2826;51.354;9.588;2023-04-25T02:36:43;97339.63;;;6.59;72.94
5609;BME280;2826;51.354;9.588;2023-04-25T02:39:09;97347.34;;;6.59;72.85
5609;BME280;2826;51.354;9.588;2023-04-25T02:41:36;97350.97;;;6.53;73.02
5609;BME280;2826;51.354;9.588;2023-04-25T02:44:04;97337.44;;;6.48;73.38
5609;BME280;2826;51.354;9.588;2023-04-25T02:46:30;97338.34;;;6.47;73.52
5609;BME280;2826;51.354;9.588;2023-04-25T02:48:59;97342.53;;;6.50;73.54
5609;BME280;2826;51.354;9.588;2023-04-25T02:51:25;97338.19;;;6.50;73.61
5609;BME280;2826;51.354;9.588;2023-04-25T02:53:52;97341.53;;;6.54;73.84
5609;BME280;2826;51.354;9.588;2023-04-25T02:56:18;97341.25;;;6.62;73.87
5609;BME280;2826;51.354;9.588;2023-04-25T02:58:45;97340.53;;;6.58;74.73
5609;BME280;2826;51.354;9.588;2023-04-25T03:01:13;97340.94;;;6.70;74.25
5609;BME280;2826;51.354;9.588;2023-04-25T03:03:40;97344.97;;;6.77;74.13
5609;BME280;2826;51.354;9.588;2023-04-25T03:06:06;97341.34;;;6.83;74.41
5609;BME280;2826;51.354;9.588;2023-04-25T03:08:33;97346.19;;;6.90;74.11
5609;BME280;2826;51.354;9.588;2023-04-25T03:11:01;97336.50;;;6.97;74.04
5609;BME280;2826;51.354;9.588;2023-04-25T03:13:28;97344.03;;;7.02;74.00
5609;BME280;2826;51.354;9.588;2023-04-25T03:15:56;97343.06;;;7.04;73.72
5609;BME280;2826;51.354;9.588;2023-04-25T03:18:24;97347.22;;;7.09;73.90
5609;BME280;2826;51.354;9.588;2023-04-25T03:20:51;97338.66;;;7.08;73.29
5609;BME280;2826;51.354;9.588;2023-04-25T03:23:17;97348.91;;;7.10;73.72
5609;BME280;2826;51.354;9.588;2023-04-25T03:25:44;97342.78;;;7.12;73.33
5609;BME280;2826;51.354;9.588;2023-04-25T03:28:11;97342.75;;;7.14;73.45
5609;BME280;2826;51.354;9.588;2023-04-25T03:30:38;97343.66;;;7.11;74.01
5609;BME280;2826;51.354;9.588;2023-04-25T03:33:04;97344.56;;;7.10;74.11
5609;BME280;2826;51.354;9.588;2023-04-25T03:35:32;97347.81;;;7.15;73.48
5609;BME280;2826;51.354;9.588;2023-04-25T03:37:59;97346.84;;;7.18;73.27
5609;BME280;2826;51.354;9.588;2023-04-25T03:40:30;97352.00;;;7.18;73.60
5609;BME280;2826;51.354;9.588;2023-04-25T03:43:07;97351.94;;;7.19;73.92
5609;BME280;2826;51.354;9.588;2023-04-25T03:45:34;97355.19;;;7.25;73.70
5609;BME280;2826;51.354;9.588;2023-04-25T03:48:02;97353.41;;;7.27;73.54
5609;BME280;2826;51.354;9.588;2023-04-25T03:50:29;97357.72;;;7.26;73.25
5609;BME280;2826;51.354;9.588;2023-04-25T03:52:57;97356.09;;;7.24;73.36
5609;BME280;2826;51.354;9.588;2023-04-25T03:55:26;97363.78;;;7.25;73.22
5609;BME280;2826;51.354;9.588;2023-04-25T03:57:53;97356.03;;;7.25;73.33
5609;BME280;2826;51.354;9.588;2023-04-25T04:00:21;97362.66;;;7.32;73.08
5609;BME280;2826;51.354;9.588;2023-04-25T04:02:51;97369.34;;;7.37;72.81
5609;BME280;2826;51.354;9.588;2023-04-25T04:05:18;97360.72;;;7.38;73.00
5609;BME280;2826;51.354;9.588;2023-04-25T04:07:51;97361.47;;;7.40;72.44
5609;BME280;2826;51.354;9.588;2023-04-25T04:10:19;97370.91;;;7.41;72.73
5609;BME280;2826;51.354;9.588;2023-04-25T04:12:45;97365.03;;;7.37;72.87
5609;BME280;2826;51.354;9.588;2023-04-25T04:15:12;97371.88;;;7.38;72.61
5609;BME280;2826;51.354;9.588;2023-04-25T04:17:39;97367.53;;;7.39;72.72
5609;BME280;2826;51.354;9.588;2023-04-25T04:20:08;97369.16;;;7.41;73.04
5609;BME280;2826;51.354;9.588;2023-04-25T04:22:35;97372.59;;;7.42;73.17
5609;BME280;2826;51.354;9.588;2023-04-25T04:25:07;97375.94;;;7.44;72.95
5609;BME280;2826;51.354;9.588;2023-04-25T04:27:55;97376.91;;;7.41;72.95
5609;BME280;2826;51.354;9.588;2023-04-25T04:30:43;97382.97;;;7.40;73.23
5609;BME280;2826;51.354;9.588;2023-04-25T04:33:12;97384.53;;;7.44;72.98
5609;BME280;2826;51.354;9.588;2023-04-25T04:35:41;97387.81;;;7.48;73.16
5609;BME280;2826;51.354;9.588;2023-04-25T04:38:08;97387.28;;;7.40;73.78
5609;BME280;2826;51.354;9.588;2023-04-25T04:40:36;97388.19;;;7.39;74.04
5609;BME280;2826;51.354;9.588;2023-04-25T04:43:12;97393.44;;;7.36;74.63
5609;BME280;2826;51.354;9.588;2023-04-25T04:46:12;97390.81;;;7.37;74.64
5609;BME280;2826;51.354;9.588;2023-04-25T04:49:02;97398.75;;;7.32;76.21
5609;BME280;2826;51.354;9.588;2023-04-25T04:51:47;97396.38;;;7.26;76.81
5609;BME280;2826;51.354;9.588;2023-04-25T04:54:39;97403.16;;;7.29;77.27
5609;BME280;2826;51.354;9.588;2023-04-25T04:57:24;97401.44;;;7.29;77.15
5609;BME280;2826;51.354;9.588;2023-04-25T05:00:15;97402.09;;;7.35;76.81
5609;BME280;2826;51.354;9.588;2023-04-25T05:03:02;97408.25;;;7.30;77.61
5609;BME280;2826;51.354;9.588;2023-04-25T05:05:47;97357.81;;;7.01;78.29
5609;BME280;2826;51.354;9.588;2023-04-25T05:08:32;97398.84;;;7.29;77.83
5609;BME280;2826;51.354;9.588;2023-04-25T05:11:13;97408.50;;;7.24;79.19
5609;BME280;2826;51.354;9.588;2023-04-25T05:13:54;97418.59;;;7.30;79.16
5609;BME280;2826;51.354;9.588;2023-04-25T05:16:42;97415.13;;;7.31;79.57
5609;BME280;2826;51.354;9.588;2023-04-25T05:19:35;97415.84;;;7.35;79.86
5609;BME280;2826;51.354;9.588;2023-04-25T05:22:22;97419.97;;;7.39;79.69
5609;BME280;2826;51.354;9.588;2023-04-25T05:25:08;97422.31;;;7.45;79.12
5609;BME280;2826;51.354;9.588;2023-04-25T05:27:58;97421.50;;;7.45;79.31
5609;BME280;2826;51.354;9.588;2023-04-25T05:30:37;97428.44;;;7.43;80.00
5609;BME280;2826;51.354;9.588;2023-04-25T05:33:16;97429.03;;;7.50;79.31
5609;BME280;2826;51.354;9.588;2023-04-25T05:35:44;97426.66;;;7.45;79.64
5609;BME280;2826;51.354;9.588;2023-04-25T05:38:11;97427.66;;;7.41;80.05
5609;BME280;2826;51.354;9.588;2023-04-25T05:40:58;97439.66;;;7.42;80.92
5609;BME280;2826;51.354;9.588;2023-04-25T05:43:43;97442.84;;;7.49;80.92
5609;BME280;2826;51.354;9.588;2023-04-25T05:46:29;97446.59;;;7.40;81.64
5609;BME280;2826;51.354;9.588;2023-04-25T05:49:11;97448.41;;;7.38;82.46
5609;BME280;2826;51.354;9.588;2023-04-25T05:51:56;97455.25;;;7.39;82.97
5609;BME280;2826;51.354;9.588;2023-04-25T05:54:35;97451.75;;;7.40;83.22
5609;BME280;2826;51.354;9.588;2023-04-25T05:57:03;97451.94;;;7.35;83.85
5609;BME280;2826;51.354;9.588;2023-04-25T05:59:30;97461.00;;;7.23;84.68
5609;BME280;2826;51.354;9.588;2023-04-25T06:01:56;97462.63;;;7.26;85.21
5609;BME280;2826;51.354;9.588;2023-04-25T06:04:24;97473.09;;;7.21;85.38
5609;BME280;2826;51.354;9.588;2023-04-25T06:06:53;97473.19;;;7.18;85.70
5609;BME280;2826;51.354;9.588;2023-04-25T06:09:21;97481.06;;;7.15;85.96
5609;BME280;2826;51.354;9.588;2023-04-25T06:11:48;97471.66;;;7.14;85.75
5609;BME280;2826;51.354;9.588;2023-04-25T06:14:15;97473.13;;;7.19;86.23
5609;BME280;2826;51.354;9.588;2023-04-25T06:16:46;97487.59;;;7.24;86.15
5609;BME280;2826;51.354;9.588;2023-04-25T06:19:13;97483.25;;;7.26;86.29
5609;BME280;2826;51.354;9.588;2023-04-25T06:21:42;97492.03;;;7.20;86.26
5609;BME280;2826;51.354;9.588;2023-04-25T06:24:09;97495.72;;;7.13;86.60
5609;BME280;2826;51.354;9.588;2023-04-25T06:26:36;97494.66;;;7.18;86.44
5609;BME280;2826;51.354;9.588;2023-04-25T06:29:03;97500.63;;;7.21;86.25
5609;BME280;2826;51.354;9.588;2023-04-25T06:31:29;97494.06;;;7.12;86.53
5609;BME280;2826;51.354;9.588;2023-04-25T06:33:59;97505.16;;;7.14;86.58
5609;BME280;2826;51.354;9.588;2023-04-25T06:36:27;97491.09;;;6.99;86.55
5609;BME280;2826;51.354;9.588;2023-04-25T06:39:01;97497.25;;;6.95;86.27
5609;BME280;2826;51.354;9.588;2023-04-25T06:41:27;97501.28;;;7.02;86.03
5609;BME280;2826;51.354;9.588;2023-04-25T06:43:58;97508.19;;;7.01;86.09
5609;BME280;2826;51.354;9.588;2023-04-25T06:46:38;97498.81;;;6.99;86.20
5609;BME280;2826;51.354;9.588;2023-04-25T06:49:05;97514.44;;;6.94;86.55
5609;BME280;2826;51.354;9.588;2023-04-25T06:51:32;97502.50;;;6.91;87.02
5609;BME280;2826;51.354;9.588;2023-04-25T06:54:00;97507.44;;;6.98;86.48
5609;BME280;2826;51.354;9.588;2023-04-25T06:56:38;97506.44;;;7.02;86.40
5609;BME280;2826;51.354;9.588;2023-04-25T06:59:10;97511.81;;;7.19;85.92
5609;BME280;2826;51.354;9.588;2023-04-25T07:01:38;97517.38;;;7.32;85.82
5609;BME280;2826;51.354;9.588;2023-04-25T07:04:10;97522.81;;;7.49;85.41
5609;BME280;2826;51.354;9.588;2023-04-25T07:06:43;97516.63;;;7.53;83.90
5609;BME280;2826;51.354;9.588;2023-04-25T07:09:12;97522.09;;;7.67;83.80
5609;BME280;2826;51.354;9.588;2023-04-25T07:11:41;97523.38;;;7.79;83.52
5609;BME280;2826;51.354;9.588;2023-04-25T07:14:07;97524.88;;;7.85;82.90
5609;BME280;2826;51.354;9.588;2023-04-25T07:16:34;97533.13;;;7.71;81.31
5609;BME280;2826;51.354;9.588;2023-04-25T07:19:01;97535.00;;;7.67;81.06
5609;BME280;2826;51.354;9.588;2023-04-25T07:21:28;97538.25;;;7.72;81.01
5609;BME280;2826;51.354;9.588;2023-04-25T07:23:58;97540.72;;;7.76;81.17
5609;BME280;2826;51.354;9.588;2023-04-25T07:26:31;97547.56;;;7.77;81.31
5609;BME280;2826;51.354;9.588;2023-04-25T07:29:24;97543.91;;;7.82;80.97
5609;BME280;2826;51.354;9.588;2023-04-25T07:31:51;97549.19;;;7.79;80.78
5609;BME280;2826;51.354;9.588;2023-04-25T07:34:19;97551.00;;;7.77;79.80
5609;BME280;2826;51.354;9.588;2023-04-25T07:36:45;97556.91;;;7.79;78.79
5609;BME280;2826;51.354;9.588;2023-04-25T07:39:12;97551.47;;;7.87;78.44
5609;BME280;2826;51.354;9.588;2023-04-25T07:41:40;97559.88;;;7.92;78.30
5609;BME280;2826;51.354;9.588;2023-04-25T07:44:12;97560.19;;;8.07;76.48
5609;BME280;2826;51.354;9.588;2023-04-25T07:46:39;97555.34;;;8.20;75.68
5609;BME280;2826;51.354;9.588;2023-04-25T07:49:07;97554.41;;;8.00;74.08
5609;BME280;2826;51.354;9.588;2023-04-25T07:51:35;97555.25;;;8.23;74.57
5609;BME280;2826;51.354;9.588;2023-04-25T07:54:07;97558.38;;;8.31;74.21
5609;BME280;2826;51.354;9.588;2023-04-25T07:56:37;97567.00;;;8.53;73.79
5609;BME280;2826;51.354;9.588;2023-04-25T07:59:05;97573.47;;;8.63;73.59
5609;BME280;2826;51.354;9.588;2023-04-25T08:01:33;97570.53;;;8.72;73.62
5609;BME280;2826;51.354;9.588;2023-04-25T08:04:03;97571.47;;;8.91;73.47
5609;BME280;2826;51.354;9.588;2023-04-25T08:06:49;97569.41;;;8.99;71.29
5609;BME280;2826;51.354;9.588;2023-04-25T08:09:21;97578.91;;;8.98;69.97
5609;BME280;2826;51.354;9.588;2023-04-25T08:11:48;97570.56;;;9.12;69.60
5609;BME280;2826;51.354;9.588;2023-04-25T08:14:19;97572.94;;;9.17;69.24
5609;BME280;2826;51.354;9.588;2023-04-25T08:16:47;97571.06;;;9.21;67.79
5609;BME280;2826;51.354;9.588;2023-04-25T08:19:14;97577.72;;;9.26;67.98
5609;BME280;2826;51.354;9.588;2023-04-25T08:21:41;97591.13;;;8.95;66.94
5609;BME280;2826;51.354;9.588;2023-04-25T08:24:13;97586.34;;;9.06;65.88
5609;BME280;2826;51.354;9.588;2023-04-25T08:26:40;97600.50;;;8.97;66.47
5609;BME280;2826;51.354;9.588;2023-04-25T08:29:08;97601.38;;;9.17;66.97
5609;BME280;2826;51.354;9.588;2023-04-25T08:31:40;97594.59;;;9.35;66.96
5609;BME280;2826;51.354;9.588;2023-04-25T08:34:07;97597.97;;;9.37;65.95
5609;BME280;2826;51.354;9.588;2023-04-25T08:36:41;97604.47;;;9.25;66.15
5609;BME280;2826;51.354;9.588;2023-04-25T08:39:37;97616.31;;;9.10;63.14
5609;BME280;2826;51.354;9.588;2023-04-25T08:42:24;97617.75;;;8.97;63.18
5609;BME280;2826;51.354;9.588;2023-04-25T08:44:53;97620.81;;;8.86;63.98
5609;BME280;2826;51.354;9.588;2023-04-25T08:47:22;97627.56;;;8.68;63.57
5609;BME280;2826;51.354;9.588;2023-04-25T08:49:54;97628.94;;;8.76;63.31
5609;BME280;2826;51.354;9.588;2023-04-25T08:52:23;97632.84;;;8.87;64.12
5609;BME280;2826;51.354;9.588;2023-04-25T08:54:52;97642.53;;;9.02;62.35
5609;BME280;2826;51.354;9.588;2023-04-25T08:57:21;97639.31;;;9.18;61.45
5609;BME280;2826;51.354;9.588;2023-04-25T08:59:50;97636.19;;;9.10;60.15
5609;BME280;2826;51.354;9.588;2023-04-25T09:02:18;97639.09;;;9.23;62.16
5609;BME280;2826;51.354;9.588;2023-04-25T09:04:49;97645.91;;;9.05;58.03
5609;BME280;2826;51.354;9.588;2023-04-25T09:07:16;97642.78;;;9.17;56.30
5609;BME280;2826;51.354;9.588;2023-04-25T09:09:46;97650.34;;;9.43;56.67
5609;BME280;2826;51.354;9.588;2023-04-25T09:12:17;97652.00;;;9.64;54.79
5609;BME280;2826;51.354;9.588;2023-04-25T09:15:01;97658.56;;;9.72;54.41
5609;BME280;2826;51.354;9.588;2023-04-25T09:17:42;97657.47;;;9.97;52.74
5609;BME280;2826;51.354;9.588;2023-04-25T09:20:13;97660.34;;;10.10;53.71
5609;BME280;2826;51.354;9.588;2023-04-25T09:22:41;97666.63;;;10.04;53.09
5609;BME280;2826;51.354;9.588;2023-04-25T09:25:10;97675.88;;;9.90;53.90
5609;BME280;2826;51.354;9.588;2023-04-25T09:27:49;97672.16;;;9.96;53.99
5609;BME280;2826;51.354;9.588;2023-04-25T09:30:29;97681.09;;;9.70;53.12
5609;BME280;2826;51.354;9.588;2023-04-25T09:33:11;97693.13;;;9.31;53.50
5609;BME280;2826;51.354;9.588;2023-04-25T09:35:44;97708.03;;;9.03;54.87
5609;BME280;2826;51.354;9.588;2023-04-25T09:38:19;97693.97;;;8.88;57.17
5609;BME280;2826;51.354;9.588;2023-04-25T09:40:59;97690.78;;;8.59;56.78
5609;BME280;2826;51.354;9.588;2023-04-25T09:43:57;97703.06;;;8.76;57.49
5609;BME280;2826;51.354;9.588;2023-04-25T09:46:33;97696.50;;;8.89;57.88
5609;BME280;2826;51.354;9.588;2023-04-25T09:49:06;97707.66;;;8.90;57.23
5609;BME280;2826;51.354;9.588;2023-04-25T09:51:56;97706.34;;;9.02;56.81
5609;BME280;2826;51.354;9.588;2023-04-25T09:54:25;97706.09;;;9.08;57.07
5609;BME280;2826;51.354;9.588;2023-04-25T09:57:10;97691.81;;;9.20;55.07
5609;BME280;2826;51.354;9.588;2023-04-25T09:59:39;97704.81;;;9.39;55.31
5609;BME280;2826;51.354;9.588;2023-04-25T10:02:10;97703.03;;;9.61;54.68
5609;BME280;2826;51.354;9.588;2023-04-25T10:04:38;97704.47;;;9.68;53.61
5609;BME280;2826;51.354;9.588;2023-04-25T10:07:16;97705.91;;;9.94;53.35
5609;BME280;2826;51.354;9.588;2023-04-25T10:09:47;97700.66;;;10.15;52.08
5609;BME280;2826;51.354;9.588;2023-04-25T10:12:16;97704.94;;;10.36;52.19
5609;BME280;2826;51.354;9.588;2023-04-25T10:14:44;97712.09;;;10.30;51.14
5609;BME280;2826;51.354;9.588;2023-04-25T10:17:11;97710.13;;;10.36;51.16
5609;BME280;2826;51.354;9.588;2023-04-25T10:19:37;97716.38;;;10.51;49.96
5609;BME280;2826;51.354;9.588;2023-04-25T10:22:07;97715.69;;;10.47;50.02
5609;BME280;2826;51.354;9.588;2023-04-25T10:24:37;97708.59;;;10.70;49.74
5609;BME280;2826;51.354;9.588;2023-04-25T10:27:05;97706.13;;;10.67;49.63
5609;BME280;2826;51.354;9.588;2023-04-25T10:29:32;97710.00;;;10.76;48.59
5609;BME280;2826;51.354;9.588;2023-04-25T10:31:59;97706.25;;;10.64;48.75
5609;BME280;2826;51.354;9.588;2023-04-25T10:34:38;97718.44;;;10.42;47.59
5609;BME280;2826;51.354;9.588;2023-04-25T10:37:08;97700.09;;;10.09;46.21
5609;BME280;2826;51.354;9.588;2023-04-25T10:39:38;97732.53;;;10.17;45.84
5609;BME280;2826;51.354;9.588;2023-04-25T10:42:06;97728.75;;;10.25;46.29
5609;BME280;2826;51.354;9.588;2023-04-25T10:44:34;97726.28;;;10.22;46.24
5609;BME280;2826;51.354;9.588;2023-04-25T10:47:03;97730.91;;;10.34;45.59
5609;BME280;2826;51.354;9.588;2023-04-25T10:49:33;97738.19;;;10.26;45.21
5609;BME280;2826;51.354;9.588;2023-04-25T10:52:13;97730.09;;;10.53;45.27
5609;BME280;2826;51.354;9.588;2023-04-25T10:54:46;97726.13;;;10.82;44.62
5609;BME280;2826;51.354;9.588;2023-04-25T10:57:36;97735.84;;;10.96;44.11
5609;BME280;2826;51.354;9.588;2023-04-25T11:00:16;97730.44;;;11.01;44.50
5609;BME280;2826;51.354;9.588;2023-04-25T11:02:45;97744.66;;;10.75;44.31
5609;BME280;2826;51.354;9.588;2023-04-25T11:05:20;97746.38;;;10.56;46.07
5609;BME280;2826;51.354;9.588;2023-04-25T11:07:50;97750.00;;;10.52;44.76
5609;BME280;2826;51.354;9.588;2023-04-25T11:10:19;97758.69;;;10.51;43.41
5609;BME280;2826;51.354;9.588;2023-04-25T11:12:46;97736.97;;;10.54;42.88
5609;BME280;2826;51.354;9.588;2023-04-25T11:15:13;97693.75;;;10.16;41.04
5609;BME280;2826;51.354;9.588;2023-04-25T11:17:40;97755.19;;;10.52;41.97
5609;BME280;2826;51.354;9.588;2023-04-25T11:20:07;97740.81;;;10.64;42.74
5609;BME280;2826;51.354;9.588;2023-04-25T11:22:37;97744.28;;;10.45;42.09
5609;BME280;2826;51.354;9.588;2023-04-25T11:25:05;97748.00;;;10.38;41.64
5609;BME280;2826;51.354;9.588;2023-04-25T11:27:33;97764.00;;;9.89;41.66
5609;BME280;2826;51.354;9.588;2023-04-25T11:30:09;97758.97;;;9.86;42.71
5609;BME280;2826;51.354;9.588;2023-04-25T11:32:36;97755.66;;;9.82;42.31
5609;BME280;2826;51.354;9.588;2023-04-25T11:35:04;97758.63;;;9.73;43.96
5609;BME280;2826;51.354;9.588;2023-04-25T11:37:31;97760.63;;;9.87;43.94
5609;BME280;2826;51.354;9.588;2023-04-25T11:39:58;97754.97;;;9.98;43.63
5609;BME280;2826;51.354;9.588;2023-04-25T11:42:25;97751.50;;;10.18;43.21
5609;BME280;2826;51.354;9.588;2023-04-25T11:44:53;97749.09;;;10.73;40.30
5609;BME280;2826;51.354;9.588;2023-04-25T11:47:19;97739.50;;;10.92;40.29
5609;BME280;2826;51.354;9.588;2023-04-25T11:49:46;97742.91;;;11.30;40.42
5609;BME280;2826;51.354;9.588;2023-04-25T11:52:13;97746.94;;;11.53;40.54
5609;BME280;2826;51.354;9.588;2023-04-25T11:54:39;97740.38;;;11.63;41.49
5609;BME280;2826;51.354;9.588;2023-04-25T11:57:06;97754.25;;;11.45;40.00
5609;BME280;2826;51.354;9.588;2023-04-25T11:59:33;97757.25;;;11.55;41.14
5609;BME280;2826;51.354;9.588;2023-04-25T12:02:01;97758.03;;;11.57;40.29
5609;BME280;2826;51.354;9.588;2023-04-25T12:04:30;97754.44;;;11.42;40.26
5609;BME280;2826;51.354;9.588;2023-04-25T12:06:57;97751.88;;;11.75;41.55
5609;BME280;2826;51.354;9.588;2023-04-25T12:09:28;97757.50;;;12.19;40.23
5609;BME280;2826;51.354;9.588;2023-04-25T12:11:57;97759.38;;;12.15;39.51
5609;BME280;2826;51.354;9.588;2023-04-25T12:14:25;97769.13;;;12.12;39.74
5609;BME280;2826;51.354;9.588;2023-04-25T12:16:55;97750.50;;;11.86;39.19
5609;BME280;2826;51.354;9.588;2023-04-25T12:19:24;97766.00;;;11.87;39.63
5609;BME280;2826;51.354;9.588;2023-04-25T12:21:51;97767.03;;;11.32;39.75
5609;BME280;2826;51.354;9.588;2023-04-25T12:24:22;97725.59;;;10.93;39.60
5609;BME280;2826;51.354;9.588;2023-04-25T12:26:52;97766.59;;;11.04;39.64
5609;BME280;2826;51.354;9.588;2023-04-25T12:29:21;97772.03;;;11.00;40.38
5609;BME280;2826;51.354;9.588;2023-04-25T12:31:48;97785.16;;;10.77;41.80
5609;BME280;2826;51.354;9.588;2023-04-25T12:34:15;97781.38;;;10.65;42.01
5609;BME280;2826;51.354;9.588;2023-04-25T12:36:43;97777.53;;;10.55;42.00
5609;BME280;2826;51.354;9.588;2023-04-25T12:39:14;97789.78;;;10.51;43.04
5609;BME280;2826;51.354;9.588;2023-04-25T12:41:41;97785.41;;;10.32;42.76
5609;BME280;2826;51.354;9.588;2023-04-25T12:44:08;97795.69;;;10.15;43.32
5609;BME280;2826;51.354;9.588;2023-04-25T12:46:35;97805.13;;;9.97;44.32
5609;BME280;2826;51.354;9.588;2023-04-25T12:49:01;97799.78;;;10.00;44.19
5609;BME280;2826;51.354;9.588;2023-04-25T12:51:28;97794.88;;;9.93;44.30
5609;BME280;2826;51.354;9.588;2023-04-25T12:53:56;97808.69;;;9.94;45.01
5609;BME280;2826;51.354;9.588;2023-04-25T12:56:23;97805.13;;;9.97;45.31
5609;BME280;2826;51.354;9.588;2023-04-25T12:58:49;97816.50;;;9.92;44.84
5609;BME280;2826;51.354;9.588;2023-04-25T13:01:16;97810.66;;;10.08;45.55
5609;BME280;2826;51.354;9.588;2023-04-25T13:03:42;97804.53;;;10.30;45.72
5609;BME280;2826;51.354;9.588;2023-04-25T13:06:10;97805.94;;;10.37;44.13
5609;BME280;2826;51.354;9.588;2023-04-25T13:08:37;97805.31;;;10.32;44.34
5609;BME280;2826;51.354;9.588;2023-04-25T13:11:06;97805.09;;;10.57;45.07
5609;BME280;2826;51.354;9.588;2023-04-25T13:13:32;97808.44;;;10.79;44.35
5609;BME280;2826;51.354;9.588;2023-04-25T13:16:00;97799.91;;;10.77;43.19
5609;BME280;2826;51.354;9.588;2023-04-25T13:18:27;97791.78;;;11.02;43.45
5609;BME280;2826;51.354;9.588;2023-04-25T13:20:53;97789.19;;;11.57;42.67
5609;BME280;2826;51.354;9.588;2023-04-25T13:23:20;97771.13;;;12.07;39.87
5609;BME280;2826;51.354;9.588;2023-04-25T13:25:47;97790.31;;;12.86;41.15
5609;BME280;2826;51.354;9.588;2023-04-25T13:28:15;97779.63;;;13.07;38.41
5609;BME280;2826;51.354;9.588;2023-04-25T13:30:42;97785.59;;;13.09;37.94
5609;BME280;2826;51.354;9.588;2023-04-25T13:33:08;97790.56;;;12.65;38.21
5609;BME280;2826;51.354;9.588;2023-04-25T13:35:37;97796.19;;;11.90;39.16
5609;BME280;2826;51.354;9.588;2023-04-25T13:38:03;97799.63;;;11.37;39.98
5609;BME280;2826;51.354;9.588;2023-04-25T13:40:30;97801.59;;;11.15;40.44
5609;BME280;2826;51.354;9.588;2023-04-25T13:42:58;97808.34;;;11.00;41.23
5609;BME280;2826;51.354;9.588;2023-04-25T13:45:26;97803.22;;;10.98;41.96
5609;BME280;2826;51.354;9.588;2023-04-25T13:47:52;97812.09;;;11.11;41.38